Weather at Heraklion International Nikos Kazantzakis Airport

Public forecast

Using degrees Celsius for public forecast. Weather courtesy of forecast.io.

Current aviation weather report (METAR) for Heraklion International Nikos Kazantzakis Airport

Retrieved 2020/11/25 04:20 UTC (21 minutes ago):

LGIR 250420Z 35015G25KT 9999 FEW018 BKN025 BKN080 16/10 Q1016 NOSIG

Aviation forecast (TAF) for Heraklion International Nikos Kazantzakis Airport

Retrieved 2020-11-25 00:15 UTC (4 hours ago):

TAF LGIR 242300Z 2500/2524 35016KT 9999 SCT025 SCT080 TEMPO 2500/2512 35016G26KT FEW018 BKN025 BKN080 PROB40 TEMPO 2500/2509 5000 RA FEW018TCU BKN020 BKN070